createdAt,value
2023-04-09T00:01:02.244Z,59.45
2023-04-09T00:03:32.092Z,48.80
2023-04-09T00:06:00.333Z,53.15
2023-04-09T00:08:28.722Z,61.35
2023-04-09T00:10:56.868Z,49.33
2023-04-09T00:13:35.592Z,47.78
2023-04-09T00:16:07.746Z,51.58
2023-04-09T00:18:37.376Z,48.65
2023-04-09T00:21:05.736Z,54.60
2023-04-09T00:23:33.795Z,59.08
2023-04-09T00:26:02.117Z,48.55
2023-04-09T00:28:30.480Z,83.18
2023-04-09T00:30:58.598Z,68.55
2023-04-09T00:33:27.235Z,81.50
2023-04-09T00:35:56.833Z,90.28
2023-04-09T00:38:24.970Z,92.60
2023-04-09T00:40:53.244Z,99.32
2023-04-09T00:43:21.589Z,99.75
2023-04-09T00:45:49.794Z,113.63
2023-04-09T00:48:18.839Z,84.38
2023-04-09T00:50:46.954Z,63.15
2023-04-09T00:53:16.566Z,65.07
2023-04-09T00:55:44.763Z,70.80
2023-04-09T00:58:13.071Z,80.22
2023-04-09T01:00:41.439Z,65.13
2023-04-09T01:03:10.096Z,92.63
2023-04-09T01:05:45.059Z,94.75
2023-04-09T01:08:20.519Z,105.35
2023-04-09T01:10:54.137Z,119.85
2023-04-09T01:13:29.311Z,92.95
2023-04-09T01:15:59.274Z,120.75
2023-04-09T01:18:32.261Z,110.18
2023-04-09T01:21:04.271Z,99.18
2023-04-09T01:23:42.217Z,77.40
2023-04-09T01:26:20.263Z,125.55
2023-04-09T01:28:54.074Z,157.80
2023-04-09T01:31:28.208Z,123.32
2023-04-09T01:33:56.793Z,103.60
2023-04-09T01:36:26.527Z,152.30
2023-04-09T01:38:55.790Z,105.75
2023-04-09T01:41:24.552Z,185.00
2023-04-09T01:43:54.778Z,194.55
2023-04-09T01:46:23.898Z,172.80
2023-04-09T01:48:52.816Z,161.85
2023-04-09T01:51:21.224Z,211.77
2023-04-09T01:53:49.979Z,228.50
2023-04-09T01:56:18.091Z,195.98
2023-04-09T01:58:46.149Z,300.50
2023-04-09T02:01:21.152Z,292.58
2023-04-09T02:03:52.896Z,189.65
2023-04-09T02:06:27.133Z,282.38
2023-04-09T02:08:55.566Z,172.48
2023-04-09T02:11:26.039Z,334.73
2023-04-09T02:13:55.405Z,354.42
2023-04-09T02:16:25.073Z,203.68
2023-04-09T02:18:54.936Z,313.42
2023-04-09T02:21:23.803Z,243.98
2023-04-09T02:23:51.983Z,223.27
2023-04-09T02:26:20.147Z,192.13
2023-04-09T02:28:48.301Z,247.95
2023-04-09T02:31:16.594Z,273.00
2023-04-09T02:33:46.260Z,293.70
2023-04-09T02:36:15.186Z,299.10
2023-04-09T02:38:43.662Z,190.23
2023-04-09T02:41:11.861Z,293.13
2023-04-09T02:43:39.988Z,328.02
2023-04-09T02:46:08.555Z,196.85
2023-04-09T02:48:36.759Z,287.77
2023-04-09T02:51:08.393Z,243.50
2023-04-09T02:53:37.769Z,237.20
2023-04-09T02:56:06.635Z,233.02
2023-04-09T02:58:34.680Z,242.05
2023-04-09T03:01:02.764Z,284.38
2023-04-09T03:03:31.448Z,210.32
2023-04-09T03:05:59.675Z,191.82
2023-04-09T03:08:29.136Z,244.82
2023-04-09T03:10:57.241Z,212.07
2023-04-09T03:13:25.369Z,256.33
2023-04-09T03:15:54.083Z,223.60
2023-04-09T03:18:22.216Z,201.48
2023-04-09T03:20:50.256Z,174.75
2023-04-09T03:23:18.358Z,169.50
2023-04-09T03:25:47.826Z,214.57
2023-04-09T03:28:15.973Z,179.05
2023-04-09T03:30:44.056Z,221.80
2023-04-09T03:33:12.117Z,198.18
2023-04-09T03:35:40.223Z,199.27
2023-04-09T03:38:08.293Z,161.23
2023-04-09T03:40:36.547Z,216.52
2023-04-09T03:43:06.172Z,147.18
2023-04-09T03:45:34.269Z,182.95
2023-04-09T03:48:02.364Z,169.13
2023-04-09T03:50:30.518Z,136.55
2023-04-09T03:52:58.605Z,127.82
2023-04-09T03:55:27.069Z,167.98
2023-04-09T03:57:55.171Z,175.38
2023-04-09T04:00:24.642Z,140.43
2023-04-09T04:02:52.970Z,130.77
2023-04-09T04:05:23.641Z,139.55
2023-04-09T04:07:51.842Z,140.52
2023-04-09T04:10:20.248Z,122.95
2023-04-09T04:12:48.383Z,136.70
2023-04-09T04:15:16.502Z,117.38
2023-04-09T04:17:46.531Z,119.18
2023-04-09T04:20:14.929Z,100.55
2023-04-09T04:22:43.033Z,150.30
2023-04-09T04:25:11.850Z,112.97
2023-04-09T04:27:42.933Z,101.65
2023-04-09T04:30:11.362Z,111.10
2023-04-09T04:32:39.489Z,126.13
2023-04-09T04:35:10.023Z,152.70
2023-04-09T04:37:39.284Z,132.95
2023-04-09T04:40:08.798Z,110.85
2023-04-09T04:42:36.907Z,97.75
2023-04-09T04:45:05.478Z,92.25
2023-04-09T04:47:34.077Z,146.50
2023-04-09T04:50:02.410Z,96.05
2023-04-09T04:52:31.858Z,138.63
2023-04-09T04:55:00.386Z,119.00
2023-04-09T04:57:28.496Z,120.78
2023-04-09T04:59:56.541Z,111.78
2023-04-09T05:02:25.028Z,151.13
2023-04-09T05:04:53.272Z,169.23
2023-04-09T05:07:21.395Z,154.00
2023-04-09T05:09:50.863Z,197.23
2023-04-09T05:12:19.291Z,169.35
2023-04-09T05:14:47.377Z,124.72
2023-04-09T05:17:15.610Z,192.63
2023-04-09T05:19:43.683Z,164.32
2023-04-09T05:22:11.769Z,158.95
2023-04-09T05:24:39.855Z,181.50
2023-04-09T05:27:09.335Z,107.50
2023-04-09T05:29:37.374Z,142.20
2023-04-09T05:32:06.929Z,136.25
2023-04-09T05:34:35.014Z,117.55
2023-04-09T05:37:03.329Z,119.85
2023-04-09T05:39:31.425Z,84.72
2023-04-09T05:41:59.597Z,81.80
2023-04-09T05:44:29.059Z,101.03
2023-04-09T05:46:57.261Z,112.90
2023-04-09T05:49:25.509Z,89.13
2023-04-09T05:51:53.624Z,99.38
2023-04-09T05:54:21.691Z,89.68
2023-04-09T05:56:49.789Z,112.60
2023-04-09T05:59:18.435Z,95.45
2023-04-09T06:01:47.972Z,77.03
2023-04-09T06:04:16.251Z,69.68
2023-04-09T06:06:44.452Z,76.03
2023-04-09T06:09:12.567Z,69.00
2023-04-09T06:11:40.696Z,60.50
2023-04-09T06:14:08.749Z,130.38
2023-04-09T06:16:36.842Z,66.07
2023-04-09T06:19:06.310Z,99.78
2023-04-09T06:21:34.419Z,72.63
2023-04-09T06:24:02.491Z,98.97
2023-04-09T06:26:30.626Z,124.07
2023-04-09T06:28:58.674Z,95.78
2023-04-09T06:31:27.457Z,78.07
2023-04-09T06:33:55.909Z,114.43
2023-04-09T06:36:27.266Z,107.88
2023-04-09T06:38:55.453Z,111.00
2023-04-09T06:41:23.660Z,99.13
2023-04-09T06:43:51.957Z,72.88
2023-04-09T06:46:21.320Z,69.13
2023-04-09T06:48:49.422Z,100.85
2023-04-09T06:51:17.532Z,73.35
2023-04-09T06:53:48.210Z,94.18
2023-04-09T06:56:16.682Z,74.57
2023-04-09T06:58:44.738Z,54.20
2023-04-09T07:01:13.605Z,51.85
2023-04-09T07:03:41.887Z,37.38
2023-04-09T07:06:10.049Z,49.15
2023-04-09T07:08:38.116Z,47.75
2023-04-09T07:11:07.579Z,37.78
2023-04-09T07:13:36.127Z,44.50
2023-04-09T07:16:04.380Z,46.47
2023-04-09T07:18:32.622Z,40.30
2023-04-09T07:21:01.014Z,39.22
2023-04-09T07:23:29.105Z,36.78
2023-04-09T07:25:57.178Z,35.05
2023-04-09T07:28:27.164Z,37.10
2023-04-09T07:30:55.293Z,38.78
2023-04-09T07:33:23.408Z,32.80
2023-04-09T07:35:52.009Z,32.22
2023-04-09T07:38:21.506Z,35.45
2023-04-09T07:40:49.587Z,33.17
2023-04-09T07:43:18.396Z,35.75
2023-04-09T07:45:50.145Z,30.55
2023-04-09T07:48:18.273Z,33.53
2023-04-09T07:50:46.384Z,33.03
2023-04-09T07:53:14.560Z,33.47
2023-04-09T07:55:42.689Z,34.13
2023-04-09T07:58:10.758Z,37.65
2023-04-09T08:00:38.885Z,37.35
2023-04-09T08:03:08.498Z,35.67
2023-04-09T08:05:38.057Z,41.42
2023-04-09T08:08:06.745Z,41.83
2023-04-09T08:10:34.883Z,40.58
2023-04-09T08:13:02.945Z,38.55
2023-04-09T08:15:31.036Z,38.20
2023-04-09T08:17:59.574Z,41.10
2023-04-09T08:20:29.417Z,35.33
2023-04-09T08:22:57.623Z,34.95
2023-04-09T08:25:26.050Z,47.78
2023-04-09T08:27:54.259Z,35.63
2023-04-09T08:30:22.324Z,36.58
2023-04-09T08:32:50.441Z,35.42
2023-04-09T08:35:18.685Z,34.95
2023-04-09T08:37:48.695Z,33.53
2023-04-09T08:40:16.990Z,38.63
2023-04-09T08:42:46.463Z,37.38
2023-04-09T08:45:14.731Z,36.38
2023-04-09T08:47:43.636Z,39.20
2023-04-09T08:50:12.183Z,38.15
2023-04-09T08:52:40.725Z,37.47
2023-04-09T08:55:11.044Z,34.03
2023-04-09T08:57:39.510Z,38.67
2023-04-09T09:00:09.101Z,37.15
2023-04-09T09:02:38.679Z,34.15
2023-04-09T09:05:07.799Z,37.78
2023-04-09T09:07:35.983Z,36.95
2023-04-09T09:10:04.599Z,36.13
2023-04-09T09:12:35.744Z,32.25
2023-04-09T09:15:04.446Z,34.10
2023-04-09T09:17:32.589Z,31.42
2023-04-09T09:20:01.204Z,31.60
2023-04-09T09:22:29.262Z,33.47
2023-04-09T09:24:57.450Z,32.97
2023-04-09T09:27:39.619Z,25.90
2023-04-09T09:30:10.534Z,28.70
2023-04-09T09:32:39.201Z,28.73
2023-04-09T09:35:08.338Z,28.60
2023-04-09T09:37:36.385Z,24.88
2023-04-09T09:40:05.017Z,27.05
2023-04-09T09:42:33.130Z,26.27
2023-04-09T09:45:03.259Z,25.27
2023-04-09T09:47:31.520Z,22.50
2023-04-09T09:49:59.623Z,23.35
2023-04-09T09:52:27.865Z,30.90
2023-04-09T09:54:57.085Z,22.42
2023-04-09T09:57:27.109Z,22.35
2023-04-09T09:59:59.071Z,19.63
2023-04-09T10:02:32.980Z,19.90
2023-04-09T10:05:03.084Z,20.40
2023-04-09T10:07:32.015Z,22.13
2023-04-09T10:10:01.023Z,25.50
2023-04-09T10:12:29.347Z,24.73
2023-04-09T10:14:58.020Z,20.88
2023-04-09T10:17:26.531Z,20.50
2023-04-09T10:20:00.716Z,20.80
2023-04-09T10:22:29.138Z,23.88
2023-04-09T10:24:58.110Z,20.80
2023-04-09T10:27:28.397Z,20.38
2023-04-09T10:29:56.492Z,21.17
2023-04-09T10:32:26.683Z,20.52
2023-04-09T10:34:58.868Z,20.52
2023-04-09T10:37:28.059Z,20.85
2023-04-09T10:39:56.590Z,19.85
2023-04-09T10:42:27.382Z,17.45
2023-04-09T10:45:20.685Z,19.42
2023-04-09T10:47:51.965Z,18.35
2023-04-09T10:50:24.110Z,18.48
2023-04-09T10:52:54.605Z,18.08
2023-04-09T10:55:36.500Z,18.10
2023-04-09T10:58:05.595Z,18.02
2023-04-09T11:00:35.083Z,16.35
2023-04-09T11:03:24.183Z,17.20
2023-04-09T11:05:59.416Z,18.02
2023-04-09T11:08:30.209Z,18.00
2023-04-09T11:11:01.144Z,15.00
2023-04-09T11:13:30.419Z,17.00
2023-04-09T11:16:00.363Z,17.83
2023-04-09T11:18:30.281Z,15.43
2023-04-09T11:21:01.364Z,17.55
2023-04-09T11:23:30.354Z,17.48
2023-04-09T11:25:58.542Z,15.52
2023-04-09T11:28:27.882Z,17.35
2023-04-09T11:30:56.163Z,17.48
2023-04-09T11:33:24.269Z,16.77
2023-04-09T11:35:52.763Z,18.40
2023-04-09T11:38:22.270Z,17.70
2023-04-09T11:40:51.512Z,16.60
2023-04-09T11:43:21.069Z,15.88
2023-04-09T11:45:49.777Z,16.75
2023-04-09T11:48:19.608Z,14.55
2023-04-09T11:50:48.606Z,17.80
2023-04-09T11:53:22.587Z,18.02
2023-04-09T11:55:52.521Z,15.45
2023-04-09T11:58:23.821Z,14.00
2023-04-09T12:00:55.079Z,17.67
2023-04-09T12:03:29.325Z,17.13
2023-04-09T12:05:57.595Z,18.70
2023-04-09T12:08:29.458Z,14.70
2023-04-09T12:10:57.672Z,14.82
2023-04-09T12:13:33.898Z,16.35
2023-04-09T12:16:03.418Z,13.77
2023-04-09T12:18:31.565Z,15.85
2023-04-09T12:21:01.454Z,15.05
2023-04-09T12:23:31.472Z,14.65
2023-04-09T12:26:01.299Z,14.98
2023-04-09T12:28:29.844Z,14.88
2023-04-09T12:30:59.492Z,14.93
2023-04-09T12:33:27.775Z,14.68
2023-04-09T12:35:56.183Z,14.52
2023-04-09T12:38:24.331Z,15.80
2023-04-09T12:40:53.779Z,16.23
2023-04-09T12:43:21.819Z,14.35
2023-04-09T12:45:49.951Z,14.90
2023-04-09T12:48:18.064Z,15.50
2023-04-09T12:50:46.306Z,13.15
2023-04-09T12:53:14.406Z,13.25
2023-04-09T12:55:43.000Z,16.90
2023-04-09T12:58:12.504Z,14.05
2023-04-09T13:00:40.615Z,13.77
2023-04-09T13:03:09.191Z,12.38
2023-04-09T13:05:37.421Z,16.02
2023-04-09T13:08:05.731Z,12.30
2023-04-09T13:10:34.934Z,12.32
2023-04-09T13:13:03.461Z,14.80
2023-04-09T13:15:32.945Z,15.82
2023-04-09T13:18:03.725Z,14.82
2023-04-09T13:20:31.993Z,13.68
2023-04-09T13:23:00.295Z,12.85
2023-04-09T13:25:28.426Z,13.98
2023-04-09T13:27:56.549Z,13.77
2023-04-09T13:30:24.942Z,11.68
2023-04-09T13:32:54.413Z,13.88
2023-04-09T13:35:22.653Z,11.82
2023-04-09T13:37:50.869Z,12.75
2023-04-09T13:40:19.069Z,12.43
2023-04-09T13:42:47.131Z,10.50
2023-04-09T13:45:15.215Z,14.18
2023-04-09T13:47:43.423Z,11.82
2023-04-09T13:50:13.836Z,11.25
2023-04-09T13:52:41.908Z,12.18
2023-04-09T13:55:11.587Z,12.50
2023-04-09T13:57:39.668Z,13.65
2023-04-09T14:00:09.073Z,12.90
2023-04-09T14:02:37.252Z,11.35
2023-04-09T14:05:05.725Z,10.18
2023-04-09T14:07:35.418Z,12.25
2023-04-09T14:10:03.626Z,13.90
2023-04-09T14:12:31.712Z,14.13
2023-04-09T14:14:59.844Z,12.77
2023-04-09T14:17:28.259Z,13.50
2023-04-09T14:19:58.008Z,14.18
2023-04-09T14:22:26.566Z,13.57
2023-04-09T14:24:56.340Z,13.68
2023-04-09T14:27:24.414Z,14.20
2023-04-09T14:29:52.572Z,15.40
2023-04-09T14:32:20.903Z,13.13
2023-04-09T14:34:48.999Z,13.80
2023-04-09T14:37:17.270Z,14.68
2023-04-09T14:39:45.364Z,13.13
2023-04-09T14:42:14.828Z,14.88
2023-04-09T14:44:43.018Z,12.90
2023-04-09T14:47:11.166Z,14.05
2023-04-09T14:49:39.348Z,15.50
2023-04-09T14:52:07.548Z,13.20
2023-04-09T14:54:37.583Z,13.20
2023-04-09T14:57:05.763Z,12.48
2023-04-09T14:59:36.012Z,15.23
2023-04-09T15:02:04.445Z,12.93
2023-04-09T15:04:32.889Z,10.30
2023-04-09T15:07:01.044Z,13.27
2023-04-09T15:09:29.125Z,12.55
2023-04-09T15:11:57.917Z,11.25
2023-04-09T15:14:26.389Z,12.85
2023-04-09T15:16:56.015Z,13.57
2023-04-09T15:19:24.221Z,12.32
2023-04-09T15:21:52.278Z,14.15
2023-04-09T15:24:20.550Z,11.05
2023-04-09T15:26:49.781Z,11.73
2023-04-09T15:29:17.901Z,10.82
2023-04-09T15:31:46.118Z,13.15
2023-04-09T15:34:15.990Z,11.55
2023-04-09T15:36:44.141Z,9.63
2023-04-09T15:39:12.276Z,11.80
2023-04-09T15:41:40.754Z,12.27
2023-04-09T15:44:09.225Z,12.02
2023-04-09T15:46:38.524Z,11.00
2023-04-09T15:49:06.698Z,9.48
2023-04-09T15:51:36.203Z,10.70
2023-04-09T15:54:04.407Z,14.35
2023-04-09T15:56:32.541Z,10.45
2023-04-09T15:59:02.177Z,15.05
2023-04-09T16:01:30.654Z,16.20
2023-04-09T16:03:59.250Z,12.32
2023-04-09T16:06:27.441Z,10.38
2023-04-09T16:08:57.556Z,12.23
2023-04-09T16:11:26.041Z,14.35
2023-04-09T16:13:54.206Z,11.85
2023-04-09T16:16:22.297Z,14.27
2023-04-09T16:18:50.659Z,12.20
2023-04-09T16:21:18.799Z,10.05
2023-04-09T16:23:46.892Z,11.30
2023-04-09T16:26:16.450Z,12.02
2023-04-09T16:28:44.557Z,9.73
2023-04-09T16:31:12.616Z,10.70
2023-04-09T16:33:40.987Z,10.38
2023-04-09T16:36:09.266Z,12.93
2023-04-09T16:38:37.452Z,11.85
2023-04-09T16:41:06.928Z,10.23
2023-04-09T16:43:36.391Z,15.18
2023-04-09T16:46:06.611Z,13.13
2023-04-09T16:48:36.360Z,12.82
2023-04-09T16:51:04.692Z,11.85
2023-04-09T16:53:32.794Z,10.18
2023-04-09T16:56:00.911Z,11.23
2023-04-09T16:58:29.800Z,13.85
2023-04-09T17:00:59.299Z,13.20
2023-04-09T17:03:27.469Z,10.20
2023-04-09T17:05:57.155Z,10.65
2023-04-09T17:08:25.373Z,12.15
2023-04-09T17:11:01.444Z,10.52
2023-04-09T17:13:29.840Z,9.85
2023-04-09T17:15:59.552Z,10.18
2023-04-09T17:18:28.397Z,11.02
2023-04-09T17:20:56.614Z,10.23
2023-04-09T17:23:24.775Z,11.85
2023-04-09T17:25:53.046Z,12.25
2023-04-09T17:28:21.104Z,12.95
2023-04-09T17:30:49.295Z,11.30
2023-04-09T17:33:18.752Z,14.25
2023-04-09T17:35:46.846Z,15.82
2023-04-09T17:38:21.146Z,17.17
2023-04-09T17:40:49.405Z,15.50
2023-04-09T17:43:17.590Z,14.07
2023-04-09T17:45:45.754Z,26.15
2023-04-09T17:48:13.806Z,11.95
2023-04-09T17:50:43.245Z,11.75
2023-04-09T17:53:11.613Z,11.30
2023-04-09T17:55:39.766Z,11.35
2023-04-09T17:58:07.844Z,11.40
2023-04-09T18:00:35.947Z,10.25
2023-04-09T18:03:04.356Z,9.93
2023-04-09T18:05:32.828Z,13.88
2023-04-09T18:08:03.196Z,27.15
2023-04-09T18:10:31.364Z,22.33
2023-04-09T18:12:59.517Z,12.68
2023-04-09T18:15:27.841Z,10.32
2023-04-09T18:17:56.302Z,13.98
2023-04-09T18:20:24.670Z,19.15
2023-04-09T18:22:52.983Z,16.23
2023-04-09T18:25:23.371Z,18.65
2023-04-09T18:27:51.610Z,15.10
2023-04-09T18:30:19.898Z,11.95
2023-04-09T18:32:49.199Z,18.77
2023-04-09T18:35:17.489Z,16.27
2023-04-09T18:37:45.790Z,11.85
2023-04-09T18:40:15.954Z,11.00
2023-04-09T18:42:45.653Z,14.38
2023-04-09T18:45:13.729Z,11.55
2023-04-09T18:47:41.816Z,13.80
2023-04-09T18:50:10.633Z,15.10
2023-04-09T18:52:39.085Z,10.52
2023-04-09T18:55:08.316Z,11.55
2023-04-09T18:57:37.991Z,10.55
2023-04-09T19:00:09.075Z,11.27
2023-04-09T19:02:38.813Z,11.07
2023-04-09T19:05:08.051Z,12.43
2023-04-09T19:07:36.241Z,13.52
2023-04-09T19:10:04.522Z,32.78
2023-04-09T19:12:32.607Z,93.82
2023-04-09T19:15:02.037Z,156.00
2023-04-09T19:17:32.048Z,161.65
2023-04-09T19:20:00.429Z,105.55
2023-04-09T19:22:28.504Z,46.35
2023-04-09T19:24:56.653Z,27.65
2023-04-09T19:27:24.741Z,18.00
2023-04-09T19:29:53.244Z,16.15
2023-04-09T19:32:21.408Z,16.77
2023-04-09T19:34:51.044Z,21.08
2023-04-09T19:37:19.765Z,19.85
2023-04-09T19:39:47.833Z,24.58
2023-04-09T19:42:16.476Z,19.70
2023-04-09T19:44:44.658Z,20.27
2023-04-09T19:47:12.774Z,22.33
2023-04-09T19:49:41.743Z,23.30
2023-04-09T19:52:11.200Z,21.90
2023-04-09T19:54:39.291Z,29.15
2023-04-09T19:57:08.146Z,32.92
2023-04-09T19:59:39.750Z,39.83
2023-04-09T20:02:08.068Z,45.28
2023-04-09T20:04:36.490Z,40.00
2023-04-09T20:07:05.302Z,44.17
2023-04-09T20:09:34.763Z,53.88
2023-04-09T20:12:06.951Z,65.70
2023-04-09T20:14:35.065Z,70.07
2023-04-09T20:17:03.233Z,68.75
2023-04-09T20:19:31.537Z,74.68
2023-04-09T20:22:00.246Z,97.50
2023-04-09T20:24:28.496Z,65.85
2023-04-09T20:26:59.608Z,67.32
2023-04-09T20:29:28.014Z,104.82
2023-04-09T20:31:56.217Z,249.15
2023-04-09T20:34:26.931Z,200.52
2023-04-09T20:36:55.450Z,262.35
2023-04-09T20:39:25.049Z,230.57
2023-04-09T20:41:53.266Z,325.40
2023-04-09T20:44:22.827Z,381.60
2023-04-09T20:46:51.082Z,352.25
2023-04-09T20:49:19.252Z,285.25
2023-04-09T20:51:47.636Z,240.95
2023-04-09T20:54:18.008Z,249.32
2023-04-09T20:56:46.161Z,264.63
2023-04-09T20:59:14.235Z,303.42
2023-04-09T21:01:44.112Z,353.40
2023-04-09T21:04:12.803Z,327.98
2023-04-09T21:06:41.244Z,286.58
2023-04-09T21:09:09.338Z,344.52
2023-04-09T21:11:37.422Z,388.77
2023-04-09T21:14:06.952Z,472.92
2023-04-09T21:16:35.103Z,672.13
2023-04-09T21:19:07.247Z,599.38
2023-04-09T21:21:35.670Z,846.50
2023-04-09T21:24:03.916Z,846.83
2023-04-09T21:26:45.286Z,650.08
2023-04-09T21:29:18.771Z,376.15
2023-04-09T21:31:47.028Z,327.88
2023-04-09T21:34:16.670Z,267.33
2023-04-09T21:36:45.332Z,208.65
2023-04-09T21:39:13.742Z,261.35
2023-04-09T21:41:41.827Z,290.00
2023-04-09T21:44:10.004Z,227.85
2023-04-09T21:46:40.781Z,236.77
2023-04-09T21:49:09.129Z,417.00
2023-04-09T21:51:40.343Z,689.60
2023-04-09T21:54:09.779Z,564.10
2023-04-09T21:56:37.927Z,470.02
2023-04-09T21:59:06.220Z,660.65
2023-04-09T22:01:35.199Z,619.50
2023-04-09T22:04:04.075Z,515.47
2023-04-09T22:06:32.602Z,455.85
2023-04-09T22:09:02.324Z,437.80
2023-04-09T22:11:30.769Z,408.23
2023-04-09T22:13:59.134Z,381.75
2023-04-09T22:16:27.745Z,372.10
2023-04-09T22:18:56.390Z,328.27
2023-04-09T22:21:25.242Z,316.10
2023-04-09T22:23:53.335Z,312.77
2023-04-09T22:26:22.977Z,300.73
2023-04-09T22:28:51.636Z,302.48
2023-04-09T22:31:19.966Z,315.15
2023-04-09T22:33:48.107Z,333.98
2023-04-09T22:36:16.328Z,347.42
2023-04-09T22:38:44.420Z,316.63
2023-04-09T22:41:12.482Z,308.63
2023-04-09T22:43:41.959Z,308.98
2023-04-09T22:46:10.694Z,330.98
2023-04-09T22:48:44.530Z,312.25
2023-04-09T22:51:14.081Z,316.17
2023-04-09T22:53:42.306Z,325.08
2023-04-09T22:56:10.983Z,316.48
2023-04-09T22:58:41.218Z,325.27
2023-04-09T23:01:09.703Z,306.30
2023-04-09T23:03:37.890Z,316.80
2023-04-09T23:06:06.470Z,312.58
2023-04-09T23:08:35.074Z,308.13
2023-04-09T23:11:05.351Z,310.52
2023-04-09T23:13:33.510Z,307.27
2023-04-09T23:16:06.295Z,298.75
2023-04-09T23:18:35.821Z,309.00
2023-04-09T23:21:07.783Z,293.02
2023-04-09T23:23:36.254Z,306.88
2023-04-09T23:26:04.571Z,296.08
2023-04-09T23:28:32.930Z,317.27
2023-04-09T23:31:02.626Z,321.67
2023-04-09T23:33:30.887Z,319.00
2023-04-09T23:35:59.058Z,335.35
2023-04-09T23:38:27.251Z,331.63
2023-04-09T23:40:55.553Z,319.88
2023-04-09T23:43:23.692Z,329.70
2023-04-09T23:45:51.781Z,337.42
2023-04-09T23:48:21.620Z,330.55
2023-04-09T23:50:49.798Z,322.50
2023-04-09T23:53:17.940Z,331.85
2023-04-09T23:55:47.802Z,340.17
2023-04-09T23:58:16.028Z,331.60
